logo dgac
Jueves 13 de Diciembre del 2018
Buscar por aerodromo o helipuerto
Ingrese nombre de aeródromo, localidad o designador OACI:
METAR del 14-12-2018 a las 00:00 UTC
METAR SCIE 140000Z 27008KT 240V300 9999 SHRA FEW025 SCT058 OVC083 14/11 Q1017
Viento: dirección 270 grados, velocidad 8 nudos
Viento con dirección variable entre 240 y 300 grados
Visibilidad: 10 km o más
ChubascosLluvia
Nubes: Escasa nubosidad a 2500 pies sobre el nivel del aeródromo
Nubes: Nubosidad parcial a 5800 pies sobre el nivel del aeródromo
Nubes: Cubierto a 8300 pies sobre el nivel del aeródromo
Temperatura: 14 °C
Rocío: 11 °C
Humedad_relativa: 82%
Presión: 1017 hPa
METAR del 13-12-2018 a las 23:00 UTC
METAR SCIE 132300Z 28005KT 250V320 9999 FEW010 SCT040 15/12 Q1017
Viento: dirección 280 grados, velocidad 5 nudos
Viento con dirección variable entre 250 y 320 grados
Visibilidad: 10 km o más
Nubes: Escasa nubosidad a 1000 pies sobre el nivel del aeródromo
Nubes: Nubosidad parcial a 4000 pies sobre el nivel del aeródromo
Temperatura: 15 °C
Rocío: 12 °C
Humedad_relativa: 82%
Presión: 1017 hPa
METAR del 13-12-2018 a las 22:00 UTC
METAR SCIE 132200Z 25011KT 230V290 9999 SCT010 BKN034 15/12 Q1016
Viento: dirección 250 grados, velocidad 11 nudos
Viento con dirección variable entre 230 y 290 grados
Visibilidad: 10 km o más
Nubes: Nubosidad parcial a 1000 pies sobre el nivel del aeródromo
Nubes: Nublado a 3400 pies sobre el nivel del aeródromo
Temperatura: 15 °C
Rocío: 12 °C
Humedad_relativa: 82%
Presión: 1016 hPa
SPECI del 13-12-2018 a las 21:42 UTC
SPECI SCIE 132142Z 28013KT 7000 -SHRA SCT012 BKN019 15/13 Q1016
Viento: dirección 280 grados, velocidad 13 nudos
Visibilidad: 7000 metros
Débil ChubascosLluvia
Nubes: Nubosidad parcial a 1200 pies sobre el nivel del aeródromo
Nubes: Nublado a 1900 pies sobre el nivel del aeródromo
Temperatura: 15 °C
Rocío: 13 °C
Humedad_relativa: 88%
Presión: 1016 hPa
SPECI del 13-12-2018 a las 21:18 UTC
SPECI SCIE 132118Z 32010G22KT 280V010 4000 -SHRA BKN003 OVC016 15/13 Q1015
Viento: dirección 320 grados, velocidad 10 nudos, con ráfagas de velocidad máxima de 22Nudos
Viento con dirección variable entre 280 y 010 grados
Visibilidad: 4000 metros
Débil ChubascosLluvia
Nubes: Nublado a 300 pies sobre el nivel del aeródromo
Nubes: Cubierto a 1600 pies sobre el nivel del aeródromo
Temperatura: 15 °C
Rocío: 13 °C
Humedad_relativa: 88%
Presión: 1015 hPa
METAR del 13-12-2018 a las 21:00 UTC
METAR SCIE 132100Z 36010G27KT 320V030 8000 -SHRA BKN010 BKN028 15/13 Q1015
Viento: dirección 360 grados, velocidad 10 nudos, con ráfagas de velocidad máxima de 27Nudos
Viento con dirección variable entre 320 y 030 grados
Visibilidad: 8000 metros
Débil ChubascosLluvia
Nubes: Nublado a 1000 pies sobre el nivel del aeródromo
Nubes: Nublado a 2800 pies sobre el nivel del aeródromo
Temperatura: 15 °C
Rocío: 13 °C
Humedad_relativa: 88%
Presión: 1015 hPa
METAR del 13-12-2018 a las 20:00 UTC
METAR SCIE 132000Z 36008KT 330V040 8000 -SHRA BKN010 OVC038 15/13 Q1016
Viento: dirección 360 grados, velocidad 8 nudos
Viento con dirección variable entre 330 y 040 grados
Visibilidad: 8000 metros
Débil ChubascosLluvia
Nubes: Nublado a 1000 pies sobre el nivel del aeródromo
Nubes: Cubierto a 3800 pies sobre el nivel del aeródromo
Temperatura: 15 °C
Rocío: 13 °C
Humedad_relativa: 88%
Presión: 1016 hPa
METAR del 13-12-2018 a las 20:00 UTC
METAR SCIE 132000Z 36008KT 330V040 8000 -SHRA BKN010 OVC038 15/13 Q1016
Viento: dirección 360 grados, velocidad 8 nudos
Viento con dirección variable entre 330 y 040 grados
Visibilidad: 8000 metros
Débil ChubascosLluvia
Nubes: Nublado a 1000 pies sobre el nivel del aeródromo
Nubes: Cubierto a 3800 pies sobre el nivel del aeródromo
Temperatura: 15 °C
Rocío: 13 °C
Humedad_relativa: 88%
Presión: 1016 hPa
SPECI del 13-12-2018 a las 19:24 UTC
SPECI SCIE 131924Z 36009G20KT 310V040 9999 BKN012 OVC033 15/12 Q1016
Viento: dirección 360 grados, velocidad 9 nudos, con ráfagas de velocidad máxima de 20Nudos
Viento con dirección variable entre 310 y 040 grados
Visibilidad: 10 km o más
Nubes: Nublado a 1200 pies sobre el nivel del aeródromo
Nubes: Cubierto a 3300 pies sobre el nivel del aeródromo
Temperatura: 15 °C
Rocío: 12 °C
Humedad_relativa: 82%
Presión: 1016 hPa
METAR del 13-12-2018 a las 19:00 UTC
METAR SCIE 131900Z 36010KT 330V030 7000 -SHRA BKN008 OVC028 15/14 Q1016
Viento: dirección 360 grados, velocidad 10 nudos
Viento con dirección variable entre 330 y 030 grados
Visibilidad: 7000 metros
Débil ChubascosLluvia
Nubes: Nublado a 800 pies sobre el nivel del aeródromo
Nubes: Cubierto a 2800 pies sobre el nivel del aeródromo
Temperatura: 15 °C
Rocío: 14 °C
Humedad_relativa: 94%
Presión: 1016 hPa